Time;durP1;ratioP1;P1;durP2;ratioP2;P2;SDS_P1;SDS_P2;PMS_P1;PMS_P2;Temp;Humidity;BMP_temperature;BMP_pressure;BME280_temperature;BME280_humidity;BME280_pressure;Samples;Min_cycle;Max_cycle;Signal;HPM_P1;HPM_P2
2021/10/14 00:00:55;;;;;;;0.50;0.40;;;7.00;99.10;;;;;;5038655;28;20174;-80
2021/10/14 00:03:21;;;;;;;0.40;0.40;;;6.90;99.10;;;;;;5038083;28;20185;-80
2021/10/14 00:05:48;;;;;;;1.88;0.70;;;6.90;99.00;;;;;;5038148;28;20920;-80
2021/10/14 00:08:13;;;;;;;1.35;0.70;;;6.90;98.80;;;;;;5038231;28;20263;-80
2021/10/14 00:10:39;;;;;;;0.60;0.50;;;6.90;98.70;;;;;;5038788;28;20174;-79
2021/10/14 00:13:05;;;;;;;0.60;0.50;;;6.80;98.80;;;;;;5038212;28;20409;-80
2021/10/14 00:15:31;;;;;;;0.50;0.40;;;6.80;99.00;;;;;;5037594;28;20917;-80
2021/10/14 00:17:59;;;;;;;0.40;0.40;;;6.80;99.10;;;;;;5038714;28;20193;-80
2021/10/14 00:20:25;;;;;;;0.50;0.40;;;6.80;99.10;;;;;;5040300;28;20190;-80
2021/10/14 00:22:51;;;;;;;0.73;0.63;;;6.70;99.10;;;;;;5042279;28;20174;-79
2021/10/14 00:25:19;;;;;;;0.50;0.40;;;6.70;99.10;;;;;;5041574;28;20178;-79
2021/10/14 00:27:46;;;;;;;0.50;0.40;;;6.70;99.10;;;;;;5042310;28;20447;-79
2021/10/14 00:30:12;;;;;;;0.60;0.50;;;6.70;99.10;;;;;;5042811;28;20169;-79
2021/10/14 00:32:38;;;;;;;1.08;1.02;;;6.60;99.10;;;;;;5042147;28;20210;-79
2021/10/14 00:35:04;;;;;;;0.50;0.40;;;6.60;99.10;;;;;;5041557;28;20269;-79
2021/10/14 00:37:30;;;;;;;0.40;0.40;;;6.60;99.10;;;;;;5042582;28;20435;-80
2021/10/14 00:39:56;;;;;;;0.40;0.40;;;6.50;99.10;;;;;;5043538;28;20174;-80
2021/10/14 00:42:22;;;;;;;0.47;0.40;;;6.50;99.10;;;;;;5043629;28;20189;-79
2021/10/14 00:44:50;;;;;;;0.50;0.40;;;6.50;99.10;;;;;;5043134;28;20201;-79
2021/10/14 00:47:21;;;;;;;0.50;0.40;;;6.50;99.10;;;;;;5043684;28;20436;-79
2021/10/14 00:49:48;;;;;;;0.50;0.50;;;6.50;99.10;;;;;;5043827;28;20245;-79
2021/10/14 00:52:14;;;;;;;0.50;0.40;;;6.40;99.10;;;;;;5043776;28;20201;-79
2021/10/14 00:54:40;;;;;;;0.70;0.60;;;6.40;99.10;;;;;;5042751;28;20170;-79
2021/10/14 00:57:07;;;;;;;0.47;0.40;;;6.40;99.10;;;;;;5043487;28;20193;-79
2021/10/14 00:59:37;;;;;;;0.88;0.77;;;6.40;99.10;;;;;;5042456;28;20261;-80
2021/10/14 01:02:03;;;;;;;0.50;0.40;;;6.40;99.10;;;;;;5041995;28;20201;-79
2021/10/14 01:04:29;;;;;;;0.50;0.40;;;6.30;99.10;;;;;;5041784;28;20548;-79
2021/10/14 01:06:55;;;;;;;0.50;0.40;;;6.40;99.10;;;;;;5041982;28;20236;-79
2021/10/14 01:09:20;;;;;;;0.80;0.70;;;6.40;99.10;;;;;;5039679;28;20417;-79
2021/10/14 01:11:46;;;;;;;0.50;0.40;;;6.40;99.10;;;;;;5041156;28;20271;-79
2021/10/14 01:14:12;;;;;;;0.40;0.40;;;6.40;99.10;;;;;;5039277;28;20405;-79
2021/10/14 01:16:43;;;;;;;0.50;0.40;;;6.40;99.10;;;;;;5039359;28;20213;-79
2021/10/14 01:19:09;;;;;;;0.50;0.40;;;6.40;99.10;;;;;;5040596;28;20193;-79
2021/10/14 01:21:36;;;;;;;1.88;0.90;;;6.40;99.10;;;;;;5039848;28;20225;-79
2021/10/14 01:24:02;;;;;;;0.60;0.50;;;6.40;99.10;;;;;;5040182;28;20174;-79
2021/10/14 01:26:28;;;;;;;0.50;0.40;;;6.40;99.10;;;;;;5039802;28;20711;-79
2021/10/14 01:28:54;;;;;;;0.60;0.50;;;6.40;99.10;;;;;;5039861;28;20174;-79
2021/10/14 01:31:25;;;;;;;0.40;0.40;;;6.40;99.10;;;;;;5039617;28;20236;-79
2021/10/14 01:33:51;;;;;;;0.60;0.50;;;6.30;99.10;;;;;;5038650;28;20197;-79
2021/10/14 01:36:17;;;;;;;0.50;0.40;;;6.40;99.10;;;;;;5039048;28;20201;-80
2021/10/14 01:38:43;;;;;;;0.50;0.40;;;6.30;99.10;;;;;;5039485;28;20178;-79
2021/10/14 01:41:09;;;;;;;0.50;0.40;;;6.30;99.10;;;;;;5040350;28;20447;-79
2021/10/14 01:43:35;;;;;;;0.40;0.40;;;6.30;99.10;;;;;;5040183;28;20178;-79
2021/10/14 01:46:01;;;;;;;0.50;0.40;;;6.30;99.10;;;;;;5040325;28;20420;-79
2021/10/14 01:48:28;;;;;;;0.55;0.47;;;6.30;99.10;;;;;;5040426;28;20413;-80
2021/10/14 01:50:54;;;;;;;0.50;0.40;;;6.30;99.10;;;;;;5040834;28;20542;-79
2021/10/14 01:53:20;;;;;;;1.75;1.67;;;6.20;99.10;;;;;;5039698;28;20166;-79
2021/10/14 01:55:46;;;;;;;0.57;0.47;;;6.30;99.10;;;;;;5040147;28;20723;-79
2021/10/14 01:58:12;;;;;;;0.60;0.50;;;6.20;99.10;;;;;;5038813;28;20201;-79
2021/10/14 02:00:39;;;;;;;0.50;0.40;;;6.20;99.10;;;;;;5038740;28;20415;-79
2021/10/14 02:03:05;;;;;;;0.50;0.40;;;6.30;99.10;;;;;;5039004;28;20997;-80
2021/10/14 02:05:32;;;;;;;0.60;0.50;;;6.30;99.10;;;;;;5039426;28;20234;-79
2021/10/14 02:07:58;;;;;;;0.40;0.40;;;6.20;99.10;;;;;;5039109;28;20189;-80
2021/10/14 02:10:24;;;;;;;0.47;0.40;;;6.30;99.10;;;;;;5038787;28;20178;-80
2021/10/14 02:12:54;;;;;;;0.40;0.40;;;6.20;99.10;;;;;;5037872;28;20253;-79
2021/10/14 02:15:19;;;;;;;0.90;0.75;;;6.30;99.10;;;;;;5038344;28;20928;-80
2021/10/14 02:17:45;;;;;;;0.80;0.70;;;6.20;99.10;;;;;;5038082;28;20288;-79
2021/10/14 02:20:12;;;;;;;0.50;0.40;;;6.30;99.10;;;;;;5037832;28;20467;-79
2021/10/14 02:22:38;;;;;;;0.50;0.40;;;6.20;99.10;;;;;;5038240;28;20825;-79
2021/10/14 02:25:05;;;;;;;0.50;0.40;;;6.20;99.10;;;;;;5037995;28;20260;-79
2021/10/14 02:27:31;;;;;;;0.60;0.50;;;6.20;99.10;;;;;;5038321;28;20205;-79
2021/10/14 02:29:57;;;;;;;0.50;0.40;;;6.20;99.10;;;;;;5039230;28;20549;-79
2021/10/14 02:32:23;;;;;;;1.60;0.73;;;6.10;99.10;;;;;;5038802;28;20204;-79
2021/10/14 02:34:48;;;;;;;0.60;0.50;;;6.10;99.10;;;;;;5039383;28;20252;-79
2021/10/14 02:37:14;;;;;;;0.40;0.40;;;6.00;99.10;;;;;;5038477;28;20467;-79
2021/10/14 02:39:40;;;;;;;0.40;0.40;;;6.00;99.10;;;;;;5037873;28;20170;-79
2021/10/14 02:42:06;;;;;;;0.50;0.40;;;6.00;99.10;;;;;;5038377;28;20434;-79
2021/10/14 02:44:32;;;;;;;0.60;0.50;;;6.00;99.10;;;;;;5037426;28;20412;-79
2021/10/14 02:46:57;;;;;;;0.50;0.40;;;5.90;99.10;;;;;;5037802;28;20512;-79
2021/10/14 02:49:23;;;;;;;0.67;0.57;;;5.90;99.10;;;;;;5036902;28;20424;-79
2021/10/14 02:51:49;;;;;;;1.03;0.93;;;5.90;99.10;;;;;;5038443;28;20216;-79
2021/10/14 02:54:15;;;;;;;0.50;0.50;;;5.90;99.10;;;;;;5037333;28;20174;-79
2021/10/14 02:56:40;;;;;;;0.73;0.63;;;5.90;99.10;;;;;;5037680;28;20523;-79
2021/10/14 02:59:06;;;;;;;0.50;0.40;;;5.80;99.10;;;;;;5038160;28;20923;-79
2021/10/14 03:01:32;;;;;;;0.80;0.70;;;5.80;99.10;;;;;;5037573;28;20176;-79
2021/10/14 03:03:57;;;;;;;0.40;0.40;;;5.80;99.10;;;;;;5037617;28;20265;-79
2021/10/14 03:06:23;;;;;;;0.50;0.40;;;5.80;99.10;;;;;;5038689;28;20433;-79
2021/10/14 03:08:49;;;;;;;0.60;0.50;;;5.80;99.10;;;;;;5039564;28;20170;-80
2021/10/14 03:11:15;;;;;;;0.50;0.40;;;5.70;99.10;;;;;;5038455;28;20295;-80
2021/10/14 03:13:40;;;;;;;0.50;0.40;;;5.70;99.10;;;;;;5037579;28;20192;-80
2021/10/14 03:16:06;;;;;;;0.60;0.50;;;5.70;99.10;;;;;;5038050;28;20404;-79
2021/10/14 03:18:33;;;;;;;0.50;0.40;;;5.70;99.10;;;;;;5039115;28;20198;-79
2021/10/14 03:20:59;;;;;;;0.50;0.40;;;5.70;99.10;;;;;;5038021;28;20189;-79
2021/10/14 03:23:25;;;;;;;0.50;0.40;;;5.80;99.10;;;;;;5037869;28;20174;-79
2021/10/14 03:25:51;;;;;;;0.50;0.40;;;5.80;99.10;;;;;;5037981;28;20192;-79
2021/10/14 03:28:16;;;;;;;0.60;0.50;;;5.80;99.10;;;;;;5037931;28;20186;-79
2021/10/14 03:30:42;;;;;;;0.53;0.43;;;5.80;99.10;;;;;;5037023;28;20417;-79
2021/10/14 03:33:08;;;;;;;0.50;0.40;;;5.80;99.10;;;;;;5037102;28;20172;-79
2021/10/14 03:35:34;;;;;;;0.50;0.40;;;5.90;99.10;;;;;;5037245;28;20228;-79
2021/10/14 03:38:01;;;;;;;0.80;0.53;;;5.80;99.10;;;;;;5038445;28;20547;-79
2021/10/14 03:40:28;;;;;;;0.60;0.50;;;5.80;99.10;;;;;;5040210;28;20478;-79
2021/10/14 03:42:54;;;;;;;0.50;0.40;;;5.80;99.10;;;;;;5039141;28;20170;-79
2021/10/14 03:45:20;;;;;;;0.50;0.40;;;5.80;99.10;;;;;;5039033;28;20181;-79
2021/10/14 03:47:45;;;;;;;0.77;0.67;;;5.80;99.10;;;;;;5038974;28;20684;-79
2021/10/14 03:50:11;;;;;;;0.50;0.40;;;5.80;99.10;;;;;;5037316;28;20417;-79
2021/10/14 03:52:38;;;;;;;0.50;0.40;;;5.80;99.10;;;;;;5039394;28;20458;-79
2021/10/14 03:55:05;;;;;;;0.40;0.40;;;5.70;99.10;;;;;;5040366;28;20440;-79
2021/10/14 03:57:31;;;;;;;0.50;0.40;;;5.60;99.10;;;;;;5042452;28;20186;-79
2021/10/14 03:59:56;;;;;;;0.60;0.50;;;5.60;99.10;;;;;;5043606;28;20170;-79
2021/10/14 04:02:22;;;;;;;0.40;0.40;;;5.60;99.10;;;;;;5043052;28;20511;-79
2021/10/14 04:04:48;;;;;;;0.50;0.40;;;5.70;99.10;;;;;;5042549;28;20421;-79
2021/10/14 04:07:14;;;;;;;0.83;0.73;;;5.70;99.10;;;;;;5042365;28;20518;-79
2021/10/14 04:09:39;;;;;;;0.50;0.40;;;5.60;99.10;;;;;;5042957;28;20178;-79
2021/10/14 04:12:05;;;;;;;0.60;0.50;;;5.50;99.10;;;;;;5041066;28;20542;-79
2021/10/14 04:14:31;;;;;;;0.50;0.40;;;5.60;99.10;;;;;;5040880;28;20174;-79
2021/10/14 04:16:57;;;;;;;0.70;0.60;;;5.60;99.10;;;;;;5041324;28;20263;-79
2021/10/14 04:19:23;;;;;;;1.27;0.67;;;5.60;99.10;;;;;;5040950;28;20503;-79
2021/10/14 04:21:49;;;;;;;0.50;0.40;;;5.60;99.10;;;;;;5039895;28;20444;-79
2021/10/14 04:24:19;;;;;;;0.50;0.40;;;5.60;99.10;;;;;;5040155;28;20669;-79
2021/10/14 04:26:44;;;;;;;0.50;0.40;;;5.60;99.10;;;;;;5040122;28;20332;-79
2021/10/14 04:29:10;;;;;;;0.40;0.40;;;5.60;99.10;;;;;;5040473;28;20217;-79
2021/10/14 04:31:37;;;;;;;0.73;0.63;;;5.60;99.10;;;;;;5041344;28;20459;-81
2021/10/14 04:34:06;;;;;;;0.60;0.50;;;5.60;99.10;;;;;;5040827;28;20170;-81
2021/10/14 04:36:32;;;;;;;0.50;0.40;;;5.70;99.10;;;;;;5041773;28;20194;-80
2021/10/14 04:38:59;;;;;;;0.50;0.40;;;5.70;99.10;;;;;;5039299;28;20511;-79
2021/10/14 04:41:25;;;;;;;0.50;0.40;;;5.70;99.10;;;;;;5039142;28;20181;-79
2021/10/14 04:43:51;;;;;;;0.50;0.40;;;5.80;99.10;;;;;;5038700;28;20170;-79
2021/10/14 04:46:17;;;;;;;1.30;1.20;;;5.80;99.10;;;;;;5039870;28;20409;-80
2021/10/14 04:48:42;;;;;;;0.30;0.30;;;5.90;99.10;;;;;;5038751;28;20413;-80
2021/10/14 04:51:08;;;;;;;0.50;0.40;;;5.90;99.10;;;;;;5038600;28;20819;-80
2021/10/14 04:53:34;;;;;;;0.50;0.40;;;5.80;99.10;;;;;;5039270;28;20170;-79
2021/10/14 04:56:01;;;;;;;0.40;0.40;;;5.80;99.10;;;;;;5038744;28;20416;-79
2021/10/14 04:58:26;;;;;;;0.50;0.40;;;5.80;99.10;;;;;;5038711;28;20704;-79
2021/10/14 05:00:52;;;;;;;0.50;0.40;;;5.80;99.10;;;;;;5038092;28;20169;-79
2021/10/14 05:03:19;;;;;;;0.70;0.60;;;5.80;99.10;;;;;;5038127;28;20711;-79
2021/10/14 05:05:45;;;;;;;4.55;1.45;;;5.80;99.10;;;;;;5038071;28;20170;-79
2021/10/14 05:08:12;;;;;;;0.47;0.40;;;5.80;99.10;;;;;;5038328;28;20190;-79
2021/10/14 05:10:38;;;;;;;0.60;0.50;;;5.80;99.10;;;;;;5038122;28;20181;-79
2021/10/14 05:13:04;;;;;;;0.50;0.40;;;5.90;99.10;;;;;;5039917;28;20205;-81
2021/10/14 05:15:30;;;;;;;0.70;0.60;;;5.80;99.10;;;;;;5039018;28;20260;-80
2021/10/14 05:17:55;;;;;;;0.70;0.60;;;5.80;99.10;;;;;;5038293;28;20804;-80
2021/10/14 05:20:21;;;;;;;0.87;0.77;;;5.90;99.10;;;;;;5036447;28;20475;-78
2021/10/14 05:22:47;;;;;;;0.57;0.47;;;5.90;99.10;;;;;;5033559;28;20576;-78
2021/10/14 05:25:13;;;;;;;0.60;0.50;;;5.90;99.10;;;;;;5033323;28;20504;-78
2021/10/14 05:27:38;;;;;;;0.80;0.73;;;5.90;99.10;;;;;;5033442;28;20437;-79
2021/10/14 05:30:05;;;;;;;0.50;0.40;;;5.90;99.10;;;;;;5033380;28;20482;-78
2021/10/14 05:32:31;;;;;;;0.50;0.40;;;6.00;99.10;;;;;;5033226;28;20316;-78
2021/10/14 05:34:59;;;;;;;0.50;0.40;;;6.00;99.10;;;;;;5033183;28;20174;-78
2021/10/14 05:37:28;;;;;;;0.50;0.40;;;6.00;99.10;;;;;;5033306;28;20194;-78
2021/10/14 05:39:54;;;;;;;0.70;0.60;;;5.90;99.10;;;;;;5033203;28;20269;-78
2021/10/14 05:42:20;;;;;;;0.50;0.40;;;5.90;99.10;;;;;;5033274;28;20713;-78
2021/10/14 05:44:46;;;;;;;0.90;0.80;;;5.90;99.10;;;;;;5032945;28;20205;-78
2021/10/14 05:47:12;;;;;;;0.30;0.30;;;6.00;99.10;;;;;;5033172;28;20440;-78
2021/10/14 05:49:38;;;;;;;0.63;0.53;;;6.00;99.10;;;;;;5033073;28;20431;-78
2021/10/14 05:52:05;;;;;;;0.52;0.43;;;6.00;99.10;;;;;;5033101;28;20452;-78
2021/10/14 05:54:31;;;;;;;0.50;0.40;;;6.00;99.10;;;;;;5032794;28;20646;-78
2021/10/14 05:56:58;;;;;;;0.50;0.40;;;6.00;99.10;;;;;;5033230;28;20277;-78
2021/10/14 05:59:24;;;;;;;0.75;0.65;;;6.10;99.10;;;;;;5032962;28;20174;-78
2021/10/14 06:01:50;;;;;;;0.82;0.73;;;6.10;99.10;;;;;;5033228;28;20209;-78
2021/10/14 06:04:16;;;;;;;0.50;0.40;;;6.10;99.10;;;;;;5032828;28;20216;-77
2021/10/14 06:06:41;;;;;;;0.50;0.40;;;6.10;99.10;;;;;;5032875;28;20528;-77
2021/10/14 06:09:08;;;;;;;0.50;0.40;;;6.10;99.10;;;;;;5032831;28;20205;-78
2021/10/14 06:11:33;;;;;;;0.60;0.50;;;6.10;99.10;;;;;;5032507;28;20202;-78
2021/10/14 06:13:59;;;;;;;1.00;0.53;;;6.10;99.10;;;;;;5032473;28;20657;-78
2021/10/14 06:16:25;;;;;;;0.47;0.40;;;6.10;99.10;;;;;;5032227;28;20606;-78
2021/10/14 06:18:51;;;;;;;0.70;0.60;;;6.10;99.10;;;;;;5031665;28;20423;-78
2021/10/14 06:21:17;;;;;;;0.70;0.60;;;6.10;99.10;;;;;;5032313;28;20451;-78
2021/10/14 06:23:43;;;;;;;0.65;0.60;;;6.20;99.10;;;;;;5032184;28;20185;-78
2021/10/14 06:26:09;;;;;;;0.30;0.30;;;6.20;99.10;;;;;;5032330;28;20205;-78
2021/10/14 06:28:35;;;;;;;4.90;0.82;;;6.20;99.10;;;;;;5032217;28;20221;-78
2021/10/14 06:31:01;;;;;;;0.50;0.40;;;6.20;99.10;;;;;;5031799;28;20170;-78
2021/10/14 06:33:26;;;;;;;0.50;0.40;;;6.20;99.10;;;;;;5032457;28;20448;-78
2021/10/14 06:35:52;;;;;;;0.50;0.40;;;6.30;99.10;;;;;;5031901;28;20189;-78
2021/10/14 06:38:25;;;;;;;0.50;0.40;;;6.30;99.10;;;;;;5106664;27;21046;-79
2021/10/14 06:40:51;;;;;;;0.70;0.47;;;6.30;99.10;;;;;;5072880;28;20176;-79
2021/10/14 06:43:16;;;;;;;1.00;0.68;;;6.30;99.10;;;;;;5072086;28;20419;-78
2021/10/14 06:45:42;;;;;;;0.40;0.40;;;6.40;99.10;;;;;;5072161;28;20172;-78
2021/10/14 06:48:08;;;;;;;0.50;0.40;;;6.50;99.10;;;;;;5072711;28;20188;-78
2021/10/14 06:50:34;;;;;;;0.50;0.40;;;6.50;99.10;;;;;;5072740;28;20206;-79
2021/10/14 06:53:01;;;;;;;0.50;0.40;;;6.50;99.10;;;;;;5072585;28;20415;-79
2021/10/14 06:55:27;;;;;;;0.50;0.40;;;6.50;99.10;;;;;;5072039;28;20176;-79
2021/10/14 06:57:53;;;;;;;0.50;0.40;;;6.50;99.10;;;;;;5072303;28;20222;-78
2021/10/14 07:00:22;;;;;;;0.53;0.43;;;6.50;99.10;;;;;;5072050;28;20517;-79
2021/10/14 07:02:49;;;;;;;0.50;0.40;;;6.50;99.10;;;;;;5072035;28;20418;-79
2021/10/14 07:05:14;;;;;;;0.50;0.40;;;6.50;99.10;;;;;;5071786;28;20172;-79
2021/10/14 07:07:41;;;;;;;0.63;0.60;;;6.60;99.10;;;;;;5072534;28;20196;-79
2021/10/14 07:10:11;;;;;;;0.40;0.40;;;6.70;99.10;;;;;;5071918;28;20776;-79
2021/10/14 07:12:39;;;;;;;0.50;0.40;;;6.70;99.10;;;;;;5072153;28;20222;-79
2021/10/14 07:15:05;;;;;;;0.85;0.75;;;6.70;99.10;;;;;;5071569;28;20558;-79
2021/10/14 07:17:31;;;;;;;0.47;0.40;;;6.70;99.10;;;;;;5072113;28;20200;-79
2021/10/14 07:19:57;;;;;;;0.60;0.50;;;6.80;99.10;;;;;;5071953;28;20180;-79
2021/10/14 07:22:23;;;;;;;0.50;0.40;;;6.90;99.10;;;;;;5077522;28;20226;-80
2021/10/14 07:24:49;;;;;;;0.67;0.60;;;7.00;99.10;;;;;;5081072;28;20169;-79
2021/10/14 07:27:15;;;;;;;0.50;0.40;;;7.10;99.10;;;;;;5081484;28;20427;-79
2021/10/14 07:29:41;;;;;;;4.55;1.25;;;7.20;99.10;;;;;;5081383;28;20454;-79
2021/10/14 07:32:07;;;;;;;1.70;1.60;;;7.30;99.10;;;;;;5080701;28;20177;-80
2021/10/14 07:34:37;;;;;;;0.75;0.70;;;7.40;99.10;;;;;;5082058;28;20176;-79
2021/10/14 07:37:05;;;;;;;0.60;0.50;;;7.40;98.80;;;;;;5080911;28;20214;-79
2021/10/14 07:39:31;;;;;;;0.50;0.40;;;7.40;99.00;;;;;;5080915;28;20196;-79
2021/10/14 07:41:58;;;;;;;0.50;0.40;;;7.50;99.10;;;;;;5081126;28;20195;-80
2021/10/14 07:44:23;;;;;;;0.50;0.40;;;7.50;99.10;;;;;;5081417;28;20222;-79
2021/10/14 07:46:49;;;;;;;0.70;0.60;;;7.60;99.10;;;;;;5080737;28;20227;-80
2021/10/14 07:49:17;;;;;;;0.77;0.70;;;7.60;99.10;;;;;;5071152;28;20415;-80
2021/10/14 07:51:44;;;;;;;0.90;0.80;;;7.80;99.00;;;;;;5067263;28;20446;-79
2021/10/14 07:54:09;;;;;;;0.60;0.50;;;7.90;98.60;;;;;;5067516;28;20272;-79
2021/10/14 07:56:35;;;;;;;0.50;0.40;;;7.90;97.60;;;;;;5068541;28;20237;-80
2021/10/14 07:59:02;;;;;;;0.45;0.40;;;8.00;97.60;;;;;;5068297;28;20404;-80
2021/10/14 08:01:28;;;;;;;0.50;0.40;;;8.00;97.80;;;;;;5067847;28;20236;-79
2021/10/14 08:03:54;;;;;;;0.63;0.50;;;8.00;97.70;;;;;;5067809;28;20177;-80
2021/10/14 08:06:19;;;;;;;0.37;0.33;;;8.00;97.70;;;;;;5069375;28;20448;-80
2021/10/14 08:08:45;;;;;;;0.60;0.50;;;8.10;97.60;;;;;;5067445;28;20415;-80
2021/10/14 08:11:11;;;;;;;0.83;0.70;;;8.20;97.50;;;;;;5067676;28;20416;-80
2021/10/14 08:13:37;;;;;;;0.60;0.50;;;8.20;97.50;;;;;;5067878;28;20427;-80
2021/10/14 08:16:04;;;;;;;0.60;0.50;;;8.20;97.40;;;;;;5067795;28;20216;-80
2021/10/14 08:18:30;;;;;;;0.47;0.40;;;8.30;97.50;;;;;;5068674;28;20411;-80
2021/10/14 08:20:57;;;;;;;1.50;0.60;;;8.50;97.60;;;;;;5067245;28;20197;-80
2021/10/14 08:23:24;;;;;;;0.50;0.45;;;8.60;97.30;;;;;;5067199;28;20169;-80
2021/10/14 08:25:50;;;;;;;1.35;1.25;;;8.70;96.90;;;;;;5065788;28;20169;-80
2021/10/14 08:28:17;;;;;;;0.70;0.60;;;8.80;96.80;;;;;;5066419;28;20189;-80
2021/10/14 08:30:44;;;;;;;0.40;0.40;;;8.90;96.40;;;;;;5066942;28;20185;-80
2021/10/14 08:33:10;;;;;;;1.02;0.98;;;9.10;96.40;;;;;;5066819;28;20176;-80
2021/10/14 08:35:36;;;;;;;0.60;0.50;;;9.20;95.50;;;;;;5067306;28;20646;-80
2021/10/14 08:38:04;;;;;;;0.50;0.40;;;9.40;95.30;;;;;;5066081;28;20228;-80
2021/10/14 08:40:30;;;;;;;0.50;0.45;;;9.40;94.40;;;;;;5066497;28;20169;-79
2021/10/14 08:43:12;;;;;;;0.60;0.50;;;9.40;95.00;;;;;;5066077;28;20675;-80
2021/10/14 08:45:40;;;;;;;1.05;0.55;;;9.50;94.30;;;;;;5065757;28;20400;-80
2021/10/14 08:48:06;;;;;;;0.60;0.50;;;9.60;94.40;;;;;;5064960;28;20193;-80
2021/10/14 08:50:34;;;;;;;2.55;0.70;;;9.60;94.50;;;;;;5066844;28;20170;-80
2021/10/14 08:53:00;;;;;;;0.50;0.40;;;9.80;94.00;;;;;;5065273;28;20275;-80
2021/10/14 08:55:27;;;;;;;0.70;0.60;;;9.90;93.40;;;;;;5065999;28;20205;-80
2021/10/14 08:57:54;;;;;;;0.43;0.40;;;10.00;93.20;;;;;;5065056;28;20477;-80
2021/10/14 09:00:21;;;;;;;0.98;0.50;;;10.10;93.10;;;;;;5065350;28;20188;-80
2021/10/14 09:02:47;;;;;;;1.05;0.95;;;10.20;92.80;;;;;;5066831;28;20626;-80
2021/10/14 09:05:14;;;;;;;0.40;0.40;;;10.30;92.80;;;;;;5067855;28;20169;-81
2021/10/14 09:07:41;;;;;;;0.40;0.40;;;10.40;92.80;;;;;;5067022;28;20204;-80
2021/10/14 09:10:12;;;;;;;0.45;0.40;;;10.60;92.80;;;;;;5066393;28;20169;-79
2021/10/14 09:12:40;;;;;;;0.70;0.60;;;10.80;92.00;;;;;;5067086;28;20177;-81
2021/10/14 09:15:14;;;;;;;0.70;0.50;;;11.00;90.90;;;;;;5067815;28;20245;-80
2021/10/14 09:17:43;;;;;;;0.40;0.40;;;11.30;90.90;;;;;;5067682;28;20201;-80
2021/10/14 09:20:23;;;;;;;0.40;0.40;;;;;;;;;;5063782;28;20166;-79
2021/10/14 09:22:59;;;;;;;0.60;0.50;;;;;;;;;;5066821;28;20165;-79
2021/10/14 09:25:28;;;;;;;1.15;1.05;;;;;;;;;;5066664;28;20244;-80
2021/10/14 09:28:04;;;;;;;0.70;0.60;;;;;;;;;;5066485;28;20227;-81
2021/10/14 09:30:30;;;;;;;0.60;0.50;;;;;;;;;;5066259;28;20171;-80
2021/10/14 09:32:56;;;;;;;0.40;0.40;;;;;;;;;;5066286;28;20169;-80
2021/10/14 09:35:25;;;;;;;0.68;0.60;;;;;;;;;;5066588;28;20177;-80
2021/10/14 09:37:52;;;;;;;1.02;0.68;;;;;;;;;;5064865;28;20681;-80
2021/10/14 09:40:18;;;;;;;0.75;0.65;;;;;;;;;;5063470;28;20201;-79
2021/10/14 09:43:03;;;;;;;0.60;0.55;;;;;;;;;;5064199;28;20200;-80
2021/10/14 09:45:33;;;;;;;0.65;0.57;;;;;;;;;;5063798;28;20665;-80
2021/10/14 09:48:08;;;;;;;0.70;0.60;;;;;;;;;;5064693;28;20204;-80
2021/10/14 09:50:55;;;;;;;0.93;0.63;;;;;;;;;;5064330;28;20184;-80
2021/10/14 09:53:22;;;;;;;0.40;0.40;;;;;;;;;;5063835;28;20414;-80
2021/10/14 09:55:49;;;;;;;0.55;0.47;;;;;;;;;;5063188;28;20181;-80
2021/10/14 09:58:16;;;;;;;0.80;0.70;;;;;;;;;;5062196;28;20208;-80
2021/10/14 10:00:42;;;;;;;0.40;0.40;;;;;;;;;;5062992;28;20169;-80
2021/10/14 10:03:14;;;;;;;0.50;0.40;;;;;;;;;;5063519;28;20215;-79
2021/10/14 10:05:40;;;;;;;0.73;0.60;;;;;;;;;;5063493;28;20183;-79
2021/10/14 10:08:09;;;;;;;0.40;0.40;;;;;;;;;;5063561;28;20222;-79
2021/10/14 10:10:36;;;;;;;0.85;0.82;;;;;;;;;;5063267;28;20173;-80
2021/10/14 10:13:03;;;;;;;0.40;0.40;;;;;;;;;;5062124;28;20265;-80
2021/10/14 10:15:43;;;;;;;0.60;0.52;;;;;;;;;;5064938;28;20256;-82
2021/10/14 10:18:28;;;;;;;2.15;0.60;;;;;;;;;;5060247;28;20204;-82
2021/10/14 10:20:55;;;;;;;0.55;0.52;;;;;;;;;;5066478;28;20244;-79
2021/10/14 10:23:40;;;;;;;0.40;0.40;;;;;;;;;;5065948;28;20165;-80
2021/10/14 10:26:06;;;;;;;0.80;0.57;;;;;;;;;;5064178;28;20633;-80
2021/10/14 10:28:39;;;;;;;0.50;0.50;;;;;;;;;;5063393;28;20224;-80
2021/10/14 10:31:05;;;;;;;2.20;0.52;;;;;;;;;;5063230;28;20207;-80
2021/10/14 10:33:53;;;;;;;0.60;0.50;;;;;;;;;;5063125;28;20174;-80
2021/10/14 10:36:37;;;;;;;0.88;0.77;;;;;;;;;;5062601;28;20576;-80
2021/10/14 10:39:04;;;;;;;0.40;0.40;;;;;;;;;;5064744;28;20168;-80
2021/10/14 10:41:30;;;;;;;0.90;0.80;;;;;;;;;;5063866;28;20540;-80
2021/10/14 10:43:59;;;;;;;0.50;0.40;;;;;;;;;;5064109;28;20173;-80
2021/10/14 10:46:29;;;;;;;0.70;0.60;;;;;;;;;;5063201;28;20188;-80
2021/10/14 10:48:55;;;;;;;0.60;0.50;;;;;;;;;;5062653;28;20184;-80
2021/10/14 10:51:30;;;;;;;0.82;0.75;;;;;;;;;;5063481;28;20165;-80
2021/10/14 10:53:56;;;;;;;0.52;0.52;;;;;;;;;;5062771;28;20191;-80
2021/10/14 10:56:38;;;;;;;0.40;0.40;;;;;;;;;;5064368;28;20279;-80
2021/10/14 10:59:06;;;;;;;0.70;0.60;;;;;;;;;;5064084;28;20161;-79
2021/10/14 11:01:32;;;;;;;0.80;0.63;;;;;;;;;;5063966;28;20173;-79
2021/10/14 11:04:00;;;;;;;0.65;0.50;;;;;;;;;;5065549;28;20298;-80
2021/10/14 11:06:27;;;;;;;0.70;0.60;;;;;;;;;;5064295;28;20185;-80
2021/10/14 11:08:54;;;;;;;0.70;0.65;;;;;;;;;;5062795;28;20170;-80
2021/10/14 11:11:21;;;;;;;0.60;0.50;;;;;;;;;;5063828;28;20176;-80
2021/10/14 11:13:50;;;;;;;0.60;0.40;;;;;;;;;;5062402;28;20170;-80
2021/10/14 11:16:17;;;;;;;0.60;0.50;;;;;;;;;;5065066;28;20165;-80
2021/10/14 11:18:45;;;;;;;0.93;0.85;;;;;;;;;;5060715;28;20185;-77
2021/10/14 11:21:15;;;;;;;1.70;1.35;;;;;;;;;;5061188;28;20180;-80
2021/10/14 11:23:42;;;;;;;0.60;0.50;;;;;;;;;;5062602;28;20642;-77
2021/10/14 11:26:27;;;;;;;0.57;0.55;;;;;;;;;;5064304;28;20239;-80
2021/10/14 11:29:02;;;;;;;0.55;0.47;;;;;;;;;;5065597;28;20173;-78
2021/10/14 11:31:31;;;;;;;0.60;0.60;;;;;;;;;;5066713;28;20238;-78
2021/10/14 11:34:27;;;;;;;0.82;0.60;;;;;;;;;;5066530;28;20343;-78
2021/10/14 11:37:05;;;;;;;0.60;0.60;;;;;;;;;;5061386;28;20221;-78
2021/10/14 11:39:55;;;;;;;1.17;1.02;;;;;;;;;;5065431;28;20173;-79
2021/10/14 11:42:22;;;;;;;0.60;0.50;;;;;;;;;;5059704;28;20177;-81
2021/10/14 11:44:49;;;;;;;0.57;0.50;;;;;;;;;;5060602;28;20181;-80
2021/10/14 11:47:16;;;;;;;1.45;0.50;;;;;;;;;;5054646;28;20285;-78
2021/10/14 11:49:42;;;;;;;0.75;0.70;;;;;;;;;;5057018;28;20204;-79
2021/10/14 11:52:11;;;;;;;0.80;0.70;;;;;;;;;;5057815;28;20170;-80
2021/10/14 11:54:38;;;;;;;0.40;0.40;;;;;;;;;;5056299;28;20675;-79
2021/10/14 11:57:05;;;;;;;0.82;0.70;;;;;;;;;;5055522;28;20205;-79
2021/10/14 11:59:32;;;;;;;1.40;0.75;;;;;;;;;;5055923;28;20196;-80
2021/10/14 12:02:08;;;;;;;1.08;0.98;;;;;;;;;;5055953;28;20649;-79
2021/10/14 12:04:38;;;;;;;0.60;0.60;;;;;;;;;;5055847;28;20165;-80
2021/10/14 12:07:05;;;;;;;2.15;0.60;;;;;;;;;;5058935;28;20193;-83
2021/10/14 12:09:31;;;;;;;0.75;0.65;;;;;;;;;;5055355;28;20208;-80
2021/10/14 12:12:02;;;;;;;0.70;0.68;;;;;;;;;;5055311;28;20192;-80
2021/10/14 12:14:30;;;;;;;1.05;0.60;;;;;;;;;;5055879;28;20251;-82
2021/10/14 12:17:24;;;;;;;0.70;0.60;;;;;;;;;;5048658;28;20229;-80
2021/10/14 12:19:51;;;;;;;0.73;0.73;;;;;;;;;;5058566;28;20262;-82
2021/10/14 12:22:21;;;;;;;3.67;0.70;;;;;;;;;;5060785;28;20535;-83
2021/10/14 12:24:56;;;;;;;0.70;0.70;;;;;;;;;;5060630;28;20169;-81
2021/10/14 12:27:23;;;;;;;0.93;0.82;;;;;;;;;;5060709;28;20676;-80
2021/10/14 12:29:50;;;;;;;1.00;0.90;;;;;;;;;;5060666;28;20200;-80
2021/10/14 12:32:23;;;;;;;0.95;0.90;;;;;;;;;;5061645;28;20173;-83
2021/10/14 12:34:53;;;;;;;2.45;0.60;;;;;;;;;;5060244;28;20656;-82
2021/10/14 12:37:25;;;;;;;0.40;0.40;;;;;;;;;;5061123;28;20219;-83
2021/10/14 12:40:08;;;;;;;0.60;0.60;;;;;;;;;;5061222;28;20173;-80
2021/10/14 12:45:16;;;;;;;0.90;0.80;;;;;;;;;;5062863;28;20169;-82
2021/10/14 12:47:48;;;;;;;1.05;0.95;;;;;;;;;;5060038;28;20193;-83
2021/10/14 12:50:41;;;;;;;4.80;0.60;;;;;;;;;;5061074;28;20682;-80
2021/10/14 12:53:13;;;;;;;0.77;0.73;;;;;;;;;;5062487;28;20173;-80
2021/10/14 12:55:54;;;;;;;1.15;1.05;;;;;;;;;;5061153;28;20227;-80
2021/10/14 12:58:21;;;;;;;0.70;0.68;;;;;;;;;;5062140;28;20205;-80
2021/10/14 13:00:57;;;;;;;0.80;0.73;;;;;;;;;;5060808;28;20534;-80
2021/10/14 13:03:23;;;;;;;0.70;0.70;;;;;;;;;;5061421;28;20181;-80
2021/10/14 13:05:49;;;;;;;0.80;0.80;;;;;;;;;;5061491;28;20177;-80
2021/10/14 13:08:15;;;;;;;0.88;0.77;;;;;;;;;;5060037;28;20197;-80
2021/10/14 13:10:41;;;;;;;0.65;0.60;;;;;;;;;;5060198;28;20184;-80
2021/10/14 13:13:07;;;;;;;1.60;0.80;;;;;;;;;;5060112;28;20173;-79
2021/10/14 13:15:33;;;;;;;0.70;0.60;;;;;;;;;;5060174;28;20657;-80
2021/10/14 13:17:59;;;;;;;0.60;0.55;;;;;;;;;;5059552;28;20216;-80
2021/10/14 13:20:26;;;;;;;0.73;0.63;;;;;;;;;;5059948;28;20223;-80
2021/10/14 13:22:53;;;;;;;0.40;0.40;;;;;;;;;;5054667;28;20239;-79
2021/10/14 13:25:19;;;;;;;0.60;0.50;;;;;;;;;;5053186;28;20169;-79
2021/10/14 13:27:46;;;;;;;0.40;0.40;;;;;;;;;;5052968;28;20580;-79
2021/10/14 13:30:12;;;;;;;0.98;0.70;;;;;;;;;;5052762;28;20272;-78
2021/10/14 13:32:38;;;;;;;0.70;0.60;;;;;;;;;;5053573;28;20589;-79